createdAt,value
2019-05-29T00:01:16.118Z,48.43
2019-05-29T00:03:42.666Z,49.67
2019-05-29T00:06:12.559Z,48.97
2019-05-29T00:08:42.234Z,50.27
2019-05-29T00:11:12.258Z,50.37
2019-05-29T00:13:42.664Z,48.93
2019-05-29T00:16:12.463Z,48.07
2019-05-29T00:18:42.312Z,48.33
2019-05-29T00:21:13.089Z,46.87
2019-05-29T00:23:43.853Z,46.63
2019-05-29T00:26:14.578Z,47.80
2019-05-29T00:28:44.432Z,48.73
2019-05-29T00:31:14.110Z,48.03
2019-05-29T00:33:46.190Z,47.33
2019-05-29T00:36:16.522Z,47.10
2019-05-29T00:38:46.399Z,48.63
2019-05-29T00:41:17.136Z,48.50
2019-05-29T00:43:48.731Z,47.37
2019-05-29T00:46:18.784Z,47.90
2019-05-29T00:48:51.140Z,51.20
2019-05-29T00:51:20.824Z,51.60
2019-05-29T00:53:51.768Z,51.83
2019-05-29T00:56:22.522Z,48.53
2019-05-29T00:58:54.788Z,48.23
2019-05-29T01:01:29.824Z,48.03
2019-05-29T01:04:01.771Z,48.70
2019-05-29T01:06:33.134Z,48.17
2019-05-29T01:09:03.298Z,48.20
2019-05-29T01:11:32.967Z,47.17
2019-05-29T01:14:05.193Z,48.00
2019-05-29T01:16:35.033Z,48.53
2019-05-29T01:19:22.847Z,48.70
2019-05-29T01:21:54.934Z,48.97
2019-05-29T01:24:28.024Z,46.97
2019-05-29T01:26:59.268Z,50.87
2019-05-29T01:29:28.960Z,47.33
2019-05-29T01:32:01.241Z,52.30
2019-05-29T01:34:30.889Z,48.17
2019-05-29T01:37:00.595Z,47.67
2019-05-29T01:39:30.260Z,48.33
2019-05-29T01:42:01.518Z,47.47
2019-05-29T01:44:32.740Z,46.07
2019-05-29T01:47:03.769Z,46.07
2019-05-29T01:49:35.140Z,44.77
2019-05-29T01:52:06.538Z,46.63
2019-05-29T01:54:36.222Z,47.73
2019-05-29T01:57:07.211Z,47.93
2019-05-29T01:59:37.189Z,46.03
2019-05-29T02:02:06.846Z,44.23
2019-05-29T02:04:39.406Z,46.00
2019-05-29T02:07:09.116Z,45.23
2019-05-29T02:09:39.760Z,47.33
2019-05-29T02:12:09.566Z,47.87
2019-05-29T02:14:39.262Z,45.00
2019-05-29T02:17:08.956Z,45.70
2019-05-29T02:19:38.698Z,44.90
2019-05-29T02:22:08.872Z,47.40
2019-05-29T02:24:40.202Z,48.23
2019-05-29T02:27:10.277Z,45.03
2019-05-29T02:29:41.099Z,45.77
2019-05-29T02:32:10.790Z,47.40
2019-05-29T02:34:43.004Z,47.13
2019-05-29T02:37:12.761Z,47.97
2019-05-29T02:39:44.276Z,46.00
2019-05-29T02:42:13.968Z,45.53
2019-05-29T02:44:43.629Z,46.63
2019-05-29T02:47:13.309Z,45.10
2019-05-29T02:49:45.522Z,45.27
2019-05-29T02:52:15.213Z,48.93
2019-05-29T02:54:44.900Z,46.13
2019-05-29T02:57:14.568Z,46.40
2019-05-29T02:59:45.702Z,46.23
2019-05-29T03:02:15.343Z,47.97
2019-05-29T03:04:45.009Z,48.03
2019-05-29T03:07:14.708Z,46.87
2019-05-29T03:09:44.958Z,45.07
2019-05-29T03:12:14.693Z,45.80
2019-05-29T03:14:44.949Z,45.13
2019-05-29T03:17:14.616Z,45.60
2019-05-29T03:19:44.284Z,46.30
2019-05-29T03:22:24.049Z,44.80
2019-05-29T03:24:54.082Z,44.40
2019-05-29T03:27:23.784Z,46.67
2019-05-29T03:29:53.466Z,46.17
2019-05-29T03:32:23.152Z,45.77
2019-05-29T03:34:54.311Z,46.00
2019-05-29T03:37:26.250Z,44.07
2019-05-29T03:39:56.287Z,47.47
2019-05-29T03:42:26.403Z,45.07
2019-05-29T03:44:56.120Z,45.23
2019-05-29T03:47:29.371Z,46.63
2019-05-29T03:50:00.349Z,46.33
2019-05-29T03:52:30.323Z,45.13
2019-05-29T03:55:00.039Z,44.73
2019-05-29T03:57:31.391Z,46.90
2019-05-29T04:00:01.144Z,46.53
2019-05-29T04:02:33.304Z,44.53
2019-05-29T04:05:03.761Z,44.87
2019-05-29T04:07:34.077Z,46.60
2019-05-29T04:10:07.899Z,45.43
2019-05-29T04:12:38.893Z,46.80
2019-05-29T04:15:09.068Z,45.70
2019-05-29T04:17:41.415Z,44.93
2019-05-29T04:20:11.486Z,47.13
2019-05-29T04:22:45.008Z,44.87
2019-05-29T04:25:39.743Z,46.70
2019-05-29T04:28:09.089Z,45.73
2019-05-29T04:30:39.472Z,47.87
2019-05-29T04:33:09.561Z,45.03
2019-05-29T04:35:39.812Z,48.80
2019-05-29T04:38:09.786Z,48.97
2019-05-29T04:40:39.855Z,46.73
2019-05-29T04:43:11.119Z,46.17
2019-05-29T04:45:40.809Z,47.57
2019-05-29T04:48:10.490Z,51.17
2019-05-29T04:50:42.177Z,48.30
2019-05-29T04:53:13.449Z,48.17
2019-05-29T04:55:43.135Z,48.57
2019-05-29T04:58:12.793Z,47.97
2019-05-29T05:00:58.097Z,48.57
2019-05-29T05:03:15.024Z,48.67
2019-05-29T05:05:44.676Z,49.20
2019-05-29T05:08:14.365Z,50.57
2019-05-29T05:10:44.365Z,50.80
2019-05-29T05:13:14.040Z,49.77
2019-05-29T05:15:47.143Z,49.80
2019-05-29T05:18:16.833Z,49.73
2019-05-29T05:20:46.523Z,50.03
2019-05-29T05:23:16.292Z,48.73
2019-05-29T05:25:46.014Z,49.17
2019-05-29T05:28:15.818Z,49.90
2019-05-29T05:30:45.536Z,51.50
2019-05-29T05:33:15.250Z,52.53
2019-05-29T05:35:44.917Z,55.43
2019-05-29T05:38:14.693Z,50.10
2019-05-29T05:40:44.777Z,50.77
2019-05-29T05:43:23.583Z,53.83
2019-05-29T05:45:47.500Z,51.17
2019-05-29T05:48:18.902Z,52.73
2019-05-29T05:50:48.565Z,53.10
2019-05-29T05:53:18.407Z,50.63
2019-05-29T05:55:49.353Z,54.70
2019-05-29T05:58:20.781Z,53.47
2019-05-29T06:00:50.746Z,54.00
2019-05-29T06:03:20.475Z,52.00
2019-05-29T06:05:50.127Z,53.30
2019-05-29T06:08:19.834Z,51.20
2019-05-29T06:10:51.306Z,52.60
2019-05-29T06:13:20.920Z,52.60
2019-05-29T06:15:50.817Z,54.17
2019-05-29T06:18:21.911Z,52.97
2019-05-29T06:20:53.731Z,55.63
2019-05-29T06:23:23.429Z,51.57
2019-05-29T06:25:53.137Z,51.60
2019-05-29T06:28:23.484Z,56.77
2019-05-29T06:30:54.654Z,55.20
2019-05-29T06:33:24.351Z,54.17
2019-05-29T06:35:54.036Z,56.23
2019-05-29T06:38:23.706Z,56.23
2019-05-29T06:40:53.416Z,54.13
2019-05-29T06:43:25.322Z,54.53
2019-05-29T06:45:56.852Z,54.50
2019-05-29T06:48:43.157Z,53.93
2019-05-29T06:51:02.065Z,54.83
2019-05-29T06:53:31.742Z,55.53
2019-05-29T06:56:04.115Z,58.93
2019-05-29T06:58:33.959Z,55.63
2019-05-29T07:01:03.627Z,57.43
2019-05-29T07:03:33.319Z,53.60
2019-05-29T07:06:03.059Z,56.87
2019-05-29T07:08:38.678Z,56.97
2019-05-29T07:11:05.146Z,58.50
2019-05-29T07:13:36.114Z,56.90
2019-05-29T07:16:07.558Z,56.77
2019-05-29T07:18:38.469Z,57.67
2019-05-29T07:21:08.731Z,57.90
2019-05-29T07:23:38.768Z,57.33
2019-05-29T07:26:08.562Z,59.57
2019-05-29T07:28:58.872Z,57.43
2019-05-29T07:31:10.918Z,57.47
2019-05-29T07:33:43.234Z,57.93
2019-05-29T07:36:13.079Z,59.23
2019-05-29T07:38:46.023Z,58.37
2019-05-29T07:41:14.308Z,57.13
2019-05-29T07:43:44.066Z,56.80
2019-05-29T07:46:13.737Z,57.27
2019-05-29T07:48:47.451Z,58.43
2019-05-29T07:51:14.815Z,59.67
2019-05-29T07:53:44.508Z,58.87
2019-05-29T07:56:22.549Z,57.20
2019-05-29T07:58:56.754Z,58.83
2019-05-29T08:01:17.361Z,61.33
2019-05-29T08:03:47.523Z,58.07
2019-05-29T08:06:17.343Z,59.03
2019-05-29T08:08:47.471Z,57.17
2019-05-29T08:11:18.978Z,59.37
2019-05-29T08:13:49.878Z,59.40
2019-05-29T08:16:19.954Z,58.40
2019-05-29T08:18:53.062Z,58.40
2019-05-29T08:21:22.502Z,57.47
2019-05-29T08:23:52.256Z,57.90
2019-05-29T08:26:21.970Z,59.10
2019-05-29T08:28:53.408Z,59.90
2019-05-29T08:31:23.083Z,59.13
2019-05-29T08:33:54.253Z,59.73
2019-05-29T08:36:23.935Z,60.63
2019-05-29T08:38:53.415Z,61.00
2019-05-29T08:41:23.106Z,60.40
2019-05-29T08:43:52.985Z,60.13
2019-05-29T08:46:22.894Z,62.23
2019-05-29T08:48:52.593Z,60.70
2019-05-29T08:51:22.857Z,58.77
2019-05-29T08:53:54.667Z,60.07
2019-05-29T08:56:24.250Z,60.67
2019-05-29T08:58:53.931Z,61.53
2019-05-29T09:01:23.583Z,60.90
2019-05-29T09:03:53.693Z,61.20
2019-05-29T09:06:23.920Z,61.20
2019-05-29T09:08:55.233Z,62.33
2019-05-29T09:11:24.944Z,61.33
2019-05-29T09:13:54.720Z,62.97
2019-05-29T09:16:24.499Z,61.63
2019-05-29T09:18:54.969Z,63.03
2019-05-29T09:21:27.367Z,60.97
2019-05-29T09:23:58.786Z,61.20
2019-05-29T09:26:28.439Z,59.90
2019-05-29T09:28:58.152Z,60.90
2019-05-29T09:31:29.275Z,64.03
2019-05-29T09:33:58.952Z,62.30
2019-05-29T09:36:29.490Z,61.70
2019-05-29T09:38:59.409Z,61.33
2019-05-29T09:41:29.102Z,61.00
2019-05-29T09:44:00.336Z,64.17
2019-05-29T09:46:30.242Z,61.13
2019-05-29T09:49:01.651Z,63.27
2019-05-29T09:51:31.619Z,61.20
2019-05-29T09:54:01.910Z,63.37
2019-05-29T09:56:32.763Z,61.37
2019-05-29T09:59:03.814Z,62.17
2019-05-29T10:01:33.728Z,63.13
2019-05-29T10:04:06.086Z,62.13
2019-05-29T10:06:34.868Z,65.73
2019-05-29T10:09:07.831Z,61.20
2019-05-29T10:11:38.006Z,63.40
2019-05-29T10:14:07.717Z,64.57
2019-05-29T10:16:39.310Z,62.60
2019-05-29T10:19:08.973Z,62.00
2019-05-29T10:21:41.029Z,61.73
2019-05-29T10:24:11.702Z,64.57
2019-05-29T10:26:41.507Z,62.97
2019-05-29T10:29:11.371Z,62.77
2019-05-29T10:31:42.134Z,62.50
2019-05-29T10:34:12.274Z,61.43
2019-05-29T10:36:42.416Z,61.87
2019-05-29T10:39:13.165Z,63.97
2019-05-29T10:41:44.733Z,63.23
2019-05-29T10:44:14.871Z,62.07
2019-05-29T10:46:47.729Z,61.77
2019-05-29T10:49:15.978Z,61.30
2019-05-29T10:52:01.584Z,62.83
2019-05-29T10:54:17.108Z,62.00
2019-05-29T10:56:46.963Z,61.10
2019-05-29T10:59:18.481Z,62.97
2019-05-29T11:01:49.211Z,62.73
2019-05-29T11:04:19.200Z,63.60
2019-05-29T11:06:50.165Z,63.40
2019-05-29T11:09:22.161Z,63.20
2019-05-29T11:11:55.256Z,62.90
2019-05-29T11:14:26.043Z,60.83
2019-05-29T11:16:57.639Z,61.20
2019-05-29T11:19:27.553Z,61.93
2019-05-29T11:22:04.574Z,63.33
2019-05-29T11:24:28.685Z,61.23
2019-05-29T11:26:59.029Z,60.90
2019-05-29T11:29:28.986Z,58.60
2019-05-29T11:31:59.012Z,59.37
2019-05-29T11:34:28.844Z,61.40
2019-05-29T11:36:58.516Z,60.07
2019-05-29T11:39:28.184Z,61.03
2019-05-29T11:41:58.908Z,58.73
2019-05-29T11:44:29.536Z,60.17
2019-05-29T11:46:59.238Z,60.97
2019-05-29T11:49:28.946Z,62.20
2019-05-29T11:52:19.662Z,58.40
2019-05-29T11:54:29.834Z,59.43
2019-05-29T11:56:59.597Z,59.23
2019-05-29T12:07:28.969Z,59.53
2019-05-29T12:09:59.571Z,58.40
2019-05-29T12:12:29.500Z,59.87
2019-05-29T12:15:09.804Z,59.70
2019-05-29T12:17:30.603Z,59.37
2019-05-29T12:20:02.374Z,59.73
2019-05-29T12:22:33.282Z,59.03
2019-05-29T12:25:03.125Z,58.13
2019-05-29T12:27:33.055Z,59.60
2019-05-29T12:30:03.283Z,58.63
2019-05-29T12:32:33.122Z,57.93
2019-05-29T12:35:03.138Z,61.47
2019-05-29T12:37:32.858Z,63.20
2019-05-29T12:40:03.684Z,61.23
2019-05-29T12:42:33.628Z,57.93
2019-05-29T12:45:04.956Z,58.40
2019-05-29T12:47:34.634Z,59.57
2019-05-29T12:50:12.625Z,59.80
2019-05-29T12:52:43.120Z,58.60
2019-05-29T12:55:15.668Z,58.50
2019-05-29T12:57:46.852Z,57.20
2019-05-29T13:00:19.511Z,58.17
2019-05-29T13:02:49.184Z,60.87
2019-05-29T13:05:20.936Z,60.53
2019-05-29T13:07:51.047Z,58.70
2019-05-29T13:10:30.790Z,59.50
2019-05-29T13:13:02.465Z,57.00
2019-05-29T13:15:28.776Z,60.63
2019-05-29T13:18:05.406Z,57.43
2019-05-29T13:20:29.876Z,56.53
2019-05-29T13:22:59.958Z,58.07
2019-05-29T13:25:30.185Z,57.67
2019-05-29T13:28:01.578Z,56.80
2019-05-29T13:30:33.104Z,56.97
2019-05-29T13:33:07.397Z,59.07
2019-05-29T13:35:36.225Z,57.30
2019-05-29T13:38:07.238Z,55.93
2019-05-29T13:40:37.948Z,56.00
2019-05-29T13:43:15.138Z,54.87
2019-05-29T13:45:39.255Z,57.13
2019-05-29T13:48:10.131Z,57.50
2019-05-29T13:50:39.826Z,58.30
2019-05-29T13:53:09.528Z,55.17
2019-05-29T13:55:39.208Z,56.37
2019-05-29T13:58:09.407Z,56.57
2019-05-29T14:00:39.260Z,55.97
2019-05-29T14:03:09.337Z,54.80
2019-05-29T14:05:39.506Z,55.37
2019-05-29T14:08:09.316Z,56.30
2019-05-29T14:10:39.225Z,55.87
2019-05-29T14:13:09.355Z,56.03
2019-05-29T14:15:39.335Z,55.00
2019-05-29T14:18:09.454Z,56.63
2019-05-29T14:20:39.167Z,55.70
2019-05-29T14:23:09.615Z,55.97
2019-05-29T14:25:39.622Z,56.20
2019-05-29T14:28:09.622Z,56.90
2019-05-29T14:30:39.467Z,55.17
2019-05-29T14:33:14.918Z,56.60
2019-05-29T14:35:43.452Z,56.23
2019-05-29T14:38:15.056Z,54.83
2019-05-29T14:40:46.016Z,56.07
2019-05-29T14:43:15.873Z,55.20
2019-05-29T14:45:45.673Z,54.93
2019-05-29T14:48:15.434Z,55.63
2019-05-29T14:50:45.140Z,54.77
2019-05-29T14:53:14.823Z,56.27
2019-05-29T14:55:44.509Z,55.03
2019-05-29T14:58:14.237Z,54.37
2019-05-29T15:00:44.226Z,55.67
2019-05-29T15:03:13.909Z,54.43
2019-05-29T15:05:44.188Z,54.97
2019-05-29T15:08:14.299Z,56.17
2019-05-29T15:10:45.853Z,56.97
2019-05-29T15:13:15.661Z,55.50
2019-05-29T15:15:46.150Z,54.47
2019-05-29T15:18:18.714Z,55.83
2019-05-29T15:20:47.259Z,56.40
2019-05-29T15:23:21.145Z,56.17
2019-05-29T15:25:51.964Z,57.60
2019-05-29T15:28:21.756Z,55.53
2019-05-29T15:30:51.647Z,56.23
2019-05-29T15:33:21.303Z,53.67
2019-05-29T15:35:51.048Z,54.77
2019-05-29T15:38:20.833Z,56.53
2019-05-29T15:40:50.524Z,54.90
2019-05-29T15:43:20.403Z,56.33
2019-05-29T15:45:50.137Z,55.13
2019-05-29T15:48:19.875Z,54.00
2019-05-29T15:50:50.467Z,55.33
2019-05-29T15:53:20.173Z,56.97
2019-05-29T15:55:49.844Z,55.43
2019-05-29T15:58:19.554Z,54.87
2019-05-29T16:00:49.620Z,55.03
2019-05-29T16:03:19.921Z,57.90
2019-05-29T16:05:49.727Z,56.77
2019-05-29T16:08:19.572Z,56.60
2019-05-29T16:10:53.180Z,57.03
2019-05-29T16:13:26.730Z,54.80
2019-05-29T16:15:57.515Z,58.93
2019-05-29T16:18:29.765Z,55.47
2019-05-29T16:21:02.525Z,57.27
2019-05-29T16:23:35.997Z,56.93
2019-05-29T16:26:06.082Z,56.60
2019-05-29T16:28:37.357Z,57.27
2019-05-29T16:31:07.846Z,57.03
2019-05-29T16:33:38.930Z,58.10
2019-05-29T16:36:09.619Z,57.97
2019-05-29T16:38:40.142Z,56.60
2019-05-29T16:41:14.136Z,55.40
2019-05-29T16:43:45.064Z,57.03
2019-05-29T16:46:20.567Z,57.27
2019-05-29T16:48:50.975Z,56.03
2019-05-29T16:51:23.046Z,58.20
2019-05-29T16:53:53.705Z,57.20
2019-05-29T16:56:24.425Z,55.17
2019-05-29T16:58:55.491Z,58.90
2019-05-29T17:01:26.252Z,58.03
2019-05-29T17:03:57.168Z,57.63
2019-05-29T17:06:26.949Z,58.37
2019-05-29T17:08:56.622Z,56.17
2019-05-29T17:11:26.309Z,58.57
2019-05-29T17:13:55.996Z,57.20
2019-05-29T17:16:25.655Z,56.10
2019-05-29T17:18:55.894Z,55.27
2019-05-29T17:21:27.238Z,57.07
2019-05-29T17:23:56.917Z,55.47
2019-05-29T17:26:26.595Z,55.43
2019-05-29T17:28:56.414Z,55.83
2019-05-29T17:31:26.095Z,57.47
2019-05-29T17:33:55.871Z,57.70
2019-05-29T17:36:28.633Z,57.47
2019-05-29T17:38:57.161Z,57.60
2019-05-29T17:41:27.059Z,58.47
2019-05-29T17:43:57.235Z,59.07
2019-05-29T17:46:26.974Z,60.77
2019-05-29T17:49:00.316Z,57.30
2019-05-29T17:51:30.025Z,59.57
2019-05-29T17:54:00.036Z,62.20
2019-05-29T17:56:36.686Z,60.00
2019-05-29T17:59:01.206Z,58.13
2019-05-29T18:01:31.093Z,59.37
2019-05-29T18:04:01.118Z,60.67
2019-05-29T18:06:30.856Z,60.63
2019-05-29T18:09:00.539Z,61.43
2019-05-29T18:11:30.244Z,59.87
2019-05-29T18:14:03.854Z,60.27
2019-05-29T18:16:31.424Z,59.27
2019-05-29T18:19:01.131Z,60.93
2019-05-29T18:21:30.852Z,62.90
2019-05-29T18:24:00.519Z,61.60
2019-05-29T18:26:45.920Z,61.90
2019-05-29T18:29:01.735Z,60.03
2019-05-29T18:31:31.389Z,61.83
2019-05-29T18:34:01.104Z,63.00
2019-05-29T18:36:31.498Z,59.80
2019-05-29T18:39:01.573Z,63.37
2019-05-29T18:41:32.474Z,61.23
2019-05-29T18:44:02.311Z,58.53
2019-05-29T18:46:37.595Z,60.47
2019-05-29T18:49:05.324Z,60.00
2019-05-29T18:51:35.009Z,61.60
2019-05-29T18:54:04.691Z,60.97
2019-05-29T18:56:34.404Z,61.60
2019-05-29T18:59:05.671Z,61.87
2019-05-29T19:01:35.356Z,60.47
2019-05-29T19:04:06.051Z,61.60
2019-05-29T19:06:36.154Z,61.30
2019-05-29T19:09:08.604Z,61.13
2019-05-29T19:11:40.021Z,62.63
2019-05-29T19:14:09.781Z,61.03
2019-05-29T19:16:39.772Z,59.50
2019-05-29T19:19:09.864Z,60.87
2019-05-29T19:21:39.514Z,62.13
2019-05-29T19:24:09.209Z,61.47
2019-05-29T19:26:38.923Z,60.43
2019-05-29T19:29:08.690Z,59.57
2019-05-29T19:31:42.280Z,61.20
2019-05-29T19:34:11.580Z,61.27
2019-05-29T19:36:41.343Z,61.70
2019-05-29T19:39:11.096Z,61.23
2019-05-29T19:41:40.805Z,60.90
2019-05-29T19:44:10.475Z,63.03
2019-05-29T19:46:53.189Z,60.27
2019-05-29T19:49:11.628Z,60.30
2019-05-29T19:51:41.913Z,62.50
2019-05-29T19:54:11.612Z,58.63
2019-05-29T19:56:41.417Z,62.53
2019-05-29T19:59:11.061Z,61.07
2019-05-29T20:01:40.815Z,60.23
2019-05-29T20:04:10.530Z,61.10
2019-05-29T20:06:40.881Z,60.43
2019-05-29T20:09:10.583Z,60.67
2019-05-29T20:11:40.480Z,57.10
2019-05-29T20:14:10.159Z,58.70
2019-05-29T20:16:39.922Z,59.70
2019-05-29T20:19:09.925Z,60.73
2019-05-29T20:21:39.620Z,58.73
2019-05-29T20:24:09.322Z,59.87
2019-05-29T20:26:41.392Z,62.70
2019-05-29T20:29:11.536Z,59.93
2019-05-29T20:31:41.260Z,61.50
2019-05-29T20:34:10.956Z,60.73
2019-05-29T20:36:41.726Z,59.77
2019-05-29T20:39:11.390Z,60.70
2019-05-29T20:41:43.239Z,60.33
2019-05-29T20:44:12.554Z,62.87
2019-05-29T20:46:42.777Z,66.63
2019-05-29T20:49:12.597Z,62.43
2019-05-29T20:51:42.382Z,59.90
2019-05-29T20:54:12.110Z,60.93
2019-05-29T20:56:43.491Z,62.13
2019-05-29T20:59:13.134Z,61.57
2019-05-29T21:01:46.039Z,61.73
2019-05-29T21:04:14.260Z,59.97
2019-05-29T21:06:43.951Z,61.87
2019-05-29T21:09:13.844Z,58.70
2019-05-29T21:11:43.681Z,59.23
2019-05-29T21:14:13.814Z,61.17
2019-05-29T21:16:44.784Z,61.80
2019-05-29T21:19:14.499Z,63.60
2019-05-29T21:21:47.178Z,59.67
2019-05-29T21:24:16.931Z,62.73
2019-05-29T21:26:47.356Z,62.43
2019-05-29T21:29:17.129Z,64.23
2019-05-29T21:31:46.884Z,58.30
2019-05-29T21:34:16.701Z,61.60
2019-05-29T21:36:46.485Z,60.43
2019-05-29T21:39:16.362Z,60.30
2019-05-29T21:41:46.735Z,64.03
2019-05-29T21:44:16.607Z,62.37
2019-05-29T21:46:47.241Z,60.80
2019-05-29T21:49:18.272Z,60.70
2019-05-29T21:51:49.611Z,66.03
2019-05-29T21:54:19.385Z,61.97
2019-05-29T21:56:50.189Z,64.57
2019-05-29T21:59:21.511Z,62.83
2019-05-29T22:01:51.319Z,59.73
2019-05-29T22:04:21.016Z,62.60
2019-05-29T22:06:53.893Z,61.00
2019-05-29T22:09:25.968Z,59.93
2019-05-29T22:12:00.514Z,61.83
2019-05-29T22:14:30.231Z,61.40
2019-05-29T22:17:00.948Z,60.13
2019-05-29T22:19:31.575Z,61.20
2019-05-29T22:22:01.393Z,60.00
2019-05-29T22:24:31.248Z,59.97
2019-05-29T22:27:01.542Z,58.80
2019-05-29T22:29:31.570Z,60.43
2019-05-29T22:32:01.639Z,59.70
2019-05-29T22:34:31.489Z,61.67
2019-05-29T22:37:02.602Z,62.20
2019-05-29T22:39:33.760Z,62.43
2019-05-29T22:42:04.315Z,58.50
2019-05-29T22:44:35.748Z,58.33
2019-05-29T22:47:05.522Z,57.83
2019-05-29T22:49:35.348Z,61.97
2019-05-29T22:52:05.143Z,60.00
2019-05-29T22:54:34.848Z,61.00
2019-05-29T22:57:04.597Z,58.73
2019-05-29T22:59:34.268Z,60.17
2019-05-29T23:02:07.146Z,61.80
2019-05-29T23:04:38.082Z,57.60
2019-05-29T23:07:09.224Z,57.73
2019-05-29T23:09:39.000Z,59.93
2019-05-29T23:12:08.791Z,63.27
2019-05-29T23:14:39.901Z,59.67
2019-05-29T23:17:10.843Z,58.40
2019-05-29T23:19:40.541Z,61.33
2019-05-29T23:22:11.615Z,59.67
2019-05-29T23:24:41.395Z,59.30
2019-05-29T23:27:11.066Z,59.87
2019-05-29T23:29:48.880Z,57.47
2019-05-29T23:32:13.605Z,59.00
2019-05-29T23:34:43.299Z,59.60
2019-05-29T23:37:16.919Z,58.53
2019-05-29T23:39:46.653Z,58.97
2019-05-29T23:42:17.980Z,58.50
2019-05-29T23:44:51.938Z,59.43
2019-05-29T23:47:20.227Z,60.50
2019-05-29T23:49:51.076Z,60.27
2019-05-29T23:52:20.747Z,60.63
2019-05-29T23:54:50.551Z,60.77
2019-05-29T23:57:20.367Z,58.77
